createdAt,value
2023-05-12T00:00:08.773Z,10.20
2023-05-12T00:02:35.443Z,10.20
2023-05-12T00:05:02.131Z,10.20
2023-05-12T00:07:28.817Z,10.20
2023-05-12T00:09:55.363Z,10.20
2023-05-12T00:12:21.961Z,10.10
2023-05-12T00:14:48.614Z,10.10
2023-05-12T00:17:15.192Z,10.10
2023-05-12T00:19:42.101Z,10.10
2023-05-12T00:22:08.933Z,10.10
2023-05-12T00:24:35.581Z,10.00
2023-05-12T00:27:02.535Z,10.00
2023-05-12T00:29:29.126Z,10.10
2023-05-12T00:31:56.363Z,10.00
2023-05-12T00:34:23.114Z,10.10
2023-05-12T00:36:49.716Z,10.00
2023-05-12T00:39:16.334Z,10.00
2023-05-12T00:41:42.958Z,10.10
2023-05-12T00:44:09.705Z,10.10
2023-05-12T00:46:36.771Z,10.10
2023-05-12T00:49:03.476Z,10.10
2023-05-12T00:51:30.715Z,10.10
2023-05-12T00:53:58.383Z,10.10
2023-05-12T00:56:25.762Z,10.10
2023-05-12T00:58:52.429Z,10.10
2023-05-12T01:01:19.138Z,10.10
2023-05-12T01:03:46.144Z,10.00
2023-05-12T01:06:21.232Z,10.00
2023-05-12T01:08:48.003Z,9.90
2023-05-12T01:11:14.563Z,9.90
2023-05-12T01:13:41.410Z,9.90
2023-05-12T01:16:10.431Z,9.90
2023-05-12T01:18:39.031Z,9.90
2023-05-12T01:21:06.311Z,9.90
2023-05-12T01:23:39.690Z,9.90
2023-05-12T01:26:09.813Z,9.90
2023-05-12T01:28:37.537Z,9.90
2023-05-12T01:31:06.202Z,9.90
2023-05-12T01:33:33.892Z,9.90
2023-05-12T01:36:00.530Z,9.80
2023-05-12T01:38:27.394Z,9.80
2023-05-12T01:40:53.966Z,9.80
2023-05-12T01:43:22.094Z,9.80
2023-05-12T01:45:48.880Z,9.80
2023-05-12T01:48:15.540Z,9.80
2023-05-12T01:50:42.090Z,9.80
2023-05-12T01:53:08.749Z,9.70
2023-05-12T01:55:35.315Z,9.70
2023-05-12T01:58:02.046Z,9.70
2023-05-12T02:00:28.581Z,9.70
2023-05-12T02:02:55.244Z,9.70
2023-05-12T02:05:21.973Z,9.70
2023-05-12T02:07:48.810Z,9.70
2023-05-12T02:10:15.401Z,9.70
2023-05-12T02:12:41.989Z,9.70
2023-05-12T02:15:08.999Z,9.70
2023-05-12T02:17:35.595Z,9.70
2023-05-12T02:20:02.238Z,9.70
2023-05-12T02:22:28.817Z,9.70
2023-05-12T02:24:55.479Z,9.60
2023-05-12T02:27:22.038Z,9.60
2023-05-12T02:29:48.670Z,9.50
2023-05-12T02:32:15.244Z,9.60
2023-05-12T02:34:41.783Z,9.50
2023-05-12T02:37:08.347Z,9.60
2023-05-12T02:39:34.960Z,9.60
2023-05-12T02:42:01.481Z,9.70
2023-05-12T02:44:28.047Z,9.70
2023-05-12T02:46:54.633Z,9.70
2023-05-12T02:49:21.213Z,9.70
2023-05-12T02:51:47.756Z,9.70
2023-05-12T02:54:14.303Z,9.70
2023-05-12T02:56:40.887Z,9.70
2023-05-12T02:59:07.476Z,9.70
2023-05-12T03:01:34.301Z,9.70
2023-05-12T03:04:00.867Z,9.60
2023-05-12T03:06:27.448Z,9.60
2023-05-12T03:08:54.013Z,9.60
2023-05-12T03:11:20.573Z,9.60
2023-05-12T03:13:47.093Z,9.60
2023-05-12T03:16:13.812Z,9.70
2023-05-12T03:18:40.391Z,9.60
2023-05-12T03:21:07.010Z,9.60
2023-05-12T03:23:33.566Z,9.60
2023-05-12T03:26:00.124Z,9.70
2023-05-12T03:28:26.680Z,9.60
2023-05-12T03:30:54.070Z,9.60
2023-05-12T03:33:20.626Z,9.60
2023-05-12T03:35:47.214Z,9.60
2023-05-12T03:38:13.791Z,9.60
2023-05-12T03:40:40.324Z,9.60
2023-05-12T03:43:06.874Z,9.60
2023-05-12T03:45:33.467Z,9.60
2023-05-12T03:48:00.024Z,9.50
2023-05-12T03:50:26.658Z,9.50
2023-05-12T03:52:53.216Z,9.50
2023-05-12T03:55:19.753Z,9.50
2023-05-12T03:57:48.061Z,9.50
2023-05-12T04:00:14.918Z,9.50
2023-05-12T04:02:41.660Z,9.50
2023-05-12T04:05:08.633Z,9.50
2023-05-12T04:07:35.377Z,9.50
2023-05-12T04:10:01.931Z,9.50
2023-05-12T04:12:28.491Z,9.50
2023-05-12T04:14:55.622Z,9.50
2023-05-12T04:17:22.199Z,9.50
2023-05-12T04:19:48.808Z,9.60
2023-05-12T04:22:15.347Z,9.60
2023-05-12T04:24:41.866Z,9.60
2023-05-12T04:27:08.468Z,9.70
2023-05-12T04:29:35.249Z,9.60
2023-05-12T04:32:01.834Z,9.70
2023-05-12T04:34:28.402Z,9.70
2023-05-12T04:36:55.087Z,9.70
2023-05-12T04:39:21.750Z,9.80
2023-05-12T04:41:48.316Z,9.80
2023-05-12T04:44:14.908Z,9.80
2023-05-12T04:46:41.523Z,9.80
2023-05-12T04:49:08.133Z,9.90
2023-05-12T04:51:34.773Z,9.90
2023-05-12T04:54:01.325Z,9.90
2023-05-12T04:56:27.892Z,9.90
2023-05-12T04:58:54.430Z,9.90
2023-05-12T05:01:21.029Z,9.90
2023-05-12T05:03:47.795Z,9.90
2023-05-12T05:06:14.513Z,9.90
2023-05-12T05:08:41.078Z,10.00
2023-05-12T05:11:07.671Z,10.00
2023-05-12T05:13:34.291Z,10.00
2023-05-12T05:16:01.203Z,10.00
2023-05-12T05:18:28.400Z,10.00
2023-05-12T05:20:58.648Z,10.00
2023-05-12T05:23:26.246Z,10.00
2023-05-12T05:25:53.004Z,10.00
2023-05-12T05:28:19.596Z,10.00
2023-05-12T05:30:46.164Z,10.00
2023-05-12T05:33:12.771Z,10.10
2023-05-12T05:35:39.493Z,10.10
2023-05-12T05:38:06.077Z,10.10
2023-05-12T05:40:44.969Z,10.20
2023-05-12T05:43:18.997Z,10.30
2023-05-12T05:45:45.619Z,10.30
2023-05-12T05:48:12.273Z,10.30
2023-05-12T05:50:38.894Z,10.30
2023-05-12T05:53:05.501Z,10.40
2023-05-12T05:55:32.071Z,10.40
2023-05-12T05:57:58.636Z,10.40
2023-05-12T06:00:25.229Z,10.50
2023-05-12T06:02:51.924Z,10.60
2023-05-12T06:05:18.902Z,10.60
2023-05-12T06:07:45.524Z,10.70
2023-05-12T06:10:12.146Z,10.70
2023-05-12T06:12:38.692Z,10.70
2023-05-12T06:15:05.860Z,10.80
2023-05-12T06:17:32.892Z,10.80
2023-05-12T06:19:59.547Z,10.80
2023-05-12T06:22:26.152Z,10.80
2023-05-12T06:24:52.710Z,10.90
2023-05-12T06:27:19.307Z,10.90
2023-05-12T06:29:45.884Z,10.80
2023-05-12T06:32:12.586Z,10.90
2023-05-12T06:34:39.184Z,10.90
2023-05-12T06:37:05.901Z,10.90
2023-05-12T06:39:32.468Z,11.00
2023-05-12T06:41:59.046Z,11.10
2023-05-12T06:44:25.646Z,11.10
2023-05-12T06:46:52.324Z,11.00
2023-05-12T06:49:18.919Z,10.90
2023-05-12T06:51:45.516Z,11.00
2023-05-12T06:54:12.208Z,11.10
2023-05-12T06:56:38.744Z,11.10
2023-05-12T06:59:05.332Z,11.20
2023-05-12T07:01:32.722Z,11.20
2023-05-12T07:03:59.950Z,11.20
2023-05-12T07:06:26.740Z,11.20
2023-05-12T07:08:54.189Z,11.30
2023-05-12T07:11:20.757Z,11.40
2023-05-12T07:13:47.550Z,11.40
2023-05-12T07:16:15.083Z,11.40
2023-05-12T07:18:42.054Z,11.40
2023-05-12T07:21:09.085Z,11.40
2023-05-12T07:23:36.325Z,11.50
2023-05-12T07:26:04.691Z,11.50
2023-05-12T07:28:32.618Z,11.60
2023-05-12T07:30:59.289Z,11.70
2023-05-12T07:33:25.883Z,11.70
2023-05-12T07:35:52.435Z,11.80
2023-05-12T07:38:18.989Z,11.90
2023-05-12T07:40:45.588Z,11.80
2023-05-12T07:43:12.524Z,11.90
2023-05-12T07:45:39.097Z,11.90
2023-05-12T07:48:05.906Z,12.00
2023-05-12T07:50:32.485Z,12.10
2023-05-12T07:52:59.029Z,12.00
2023-05-12T07:55:25.682Z,11.90
2023-05-12T07:57:52.421Z,12.00
2023-05-12T08:00:19.216Z,12.10
2023-05-12T08:02:45.887Z,12.30
2023-05-12T08:05:12.743Z,12.40
2023-05-12T08:07:41.177Z,12.40
2023-05-12T08:10:09.062Z,12.40
2023-05-12T08:12:35.629Z,12.40
2023-05-12T08:15:02.217Z,12.50
2023-05-12T08:17:29.428Z,12.60
2023-05-12T08:19:56.168Z,12.70
2023-05-12T08:22:22.834Z,12.70
2023-05-12T08:24:49.430Z,12.70
2023-05-12T08:27:16.025Z,12.70
2023-05-12T08:29:42.550Z,12.80
2023-05-12T08:32:09.196Z,12.90
2023-05-12T08:34:35.786Z,12.80
2023-05-12T08:37:02.383Z,12.80
2023-05-12T08:39:29.024Z,13.00
2023-05-12T08:42:13.843Z,13.10
2023-05-12T08:44:40.329Z,13.20
2023-05-12T08:47:07.249Z,13.20
2023-05-12T08:49:36.161Z,13.20
2023-05-12T08:52:03.172Z,13.20
2023-05-12T08:54:30.248Z,13.20
2023-05-12T08:59:26.893Z,13.40
2023-05-12T09:01:54.887Z,13.40
2023-05-12T09:04:21.582Z,13.30
2023-05-12T09:06:49.146Z,13.30
2023-05-12T09:09:17.464Z,13.30
2023-05-12T09:11:46.339Z,13.30
2023-05-12T09:14:18.376Z,13.30
2023-05-12T09:16:48.622Z,13.20
2023-05-12T09:19:20.401Z,13.20
2023-05-12T09:21:50.356Z,13.20
2023-05-12T09:24:16.881Z,13.20
2023-05-12T09:26:49.323Z,13.00
2023-05-12T09:29:27.861Z,13.10
2023-05-12T09:31:58.406Z,12.90
2023-05-12T09:34:29.734Z,12.80
2023-05-12T09:36:57.347Z,12.80
2023-05-12T09:39:24.058Z,12.80
2023-05-12T09:41:50.767Z,12.90
2023-05-12T09:44:17.323Z,13.00
2023-05-12T09:46:44.571Z,13.00
2023-05-12T09:49:11.881Z,13.00
2023-05-12T09:51:39.751Z,12.90
2023-05-12T09:54:07.845Z,12.80
2023-05-12T09:56:37.647Z,12.80
2023-05-12T09:59:05.510Z,12.70
2023-05-12T10:01:32.325Z,12.90
2023-05-12T10:03:59.394Z,12.90
2023-05-12T10:06:33.134Z,12.90
2023-05-12T10:09:09.956Z,12.80
2023-05-12T10:11:37.241Z,12.70
2023-05-12T10:14:04.874Z,12.70
2023-05-12T10:16:32.795Z,12.70
2023-05-12T10:19:00.238Z,12.60
2023-05-12T10:21:27.386Z,12.50
2023-05-12T10:23:55.163Z,12.60
2023-05-12T10:26:22.166Z,12.60
2023-05-12T10:28:50.000Z,12.70
2023-05-12T10:31:16.976Z,12.70
2023-05-12T10:33:43.689Z,12.70
2023-05-12T10:36:17.845Z,12.80
2023-05-12T10:38:47.260Z,12.80
2023-05-12T10:41:13.826Z,12.90
2023-05-12T10:43:42.441Z,12.80
2023-05-12T10:46:12.285Z,12.80
2023-05-12T10:48:54.822Z,12.70
2023-05-12T10:51:32.551Z,12.80
2023-05-12T10:54:04.979Z,12.80
2023-05-12T10:56:43.225Z,12.90
2023-05-12T10:59:20.083Z,13.00
2023-05-12T11:02:05.182Z,13.00
2023-05-12T11:04:45.900Z,13.10
2023-05-12T11:07:15.015Z,13.10
2023-05-12T11:09:56.831Z,13.20
2023-05-12T11:12:26.881Z,13.20
2023-05-12T11:14:53.620Z,13.30
2023-05-12T11:17:20.226Z,13.10
2023-05-12T11:19:49.155Z,13.20
2023-05-12T11:22:20.304Z,13.20
2023-05-12T11:24:47.416Z,13.30
2023-05-12T11:27:16.029Z,13.30
2023-05-12T11:29:44.134Z,13.30
2023-05-12T11:32:11.589Z,13.40
2023-05-12T11:34:38.763Z,13.40
2023-05-12T11:37:06.150Z,13.50
2023-05-12T11:39:33.148Z,13.50
2023-05-12T11:42:13.068Z,13.60
2023-05-12T11:44:50.144Z,13.50
2023-05-12T11:47:18.982Z,13.50
2023-05-12T11:49:55.590Z,13.40
2023-05-12T11:52:24.291Z,13.40
2023-05-12T11:54:52.668Z,13.40
2023-05-12T11:57:25.838Z,13.40
2023-05-12T12:00:00.881Z,13.40
2023-05-12T12:02:28.281Z,13.40
2023-05-12T12:04:55.015Z,13.40
2023-05-12T12:07:31.822Z,13.30
2023-05-12T12:09:59.216Z,13.30
2023-05-12T12:12:25.793Z,13.20
2023-05-12T12:14:52.563Z,13.30
2023-05-12T12:17:19.155Z,13.30
2023-05-12T12:19:45.709Z,13.30
2023-05-12T12:22:12.303Z,13.40
2023-05-12T12:24:38.838Z,13.40
2023-05-12T12:27:05.631Z,13.30
2023-05-12T12:29:32.207Z,13.30
2023-05-12T12:31:58.798Z,13.20
2023-05-12T12:34:25.366Z,13.00
2023-05-12T12:36:52.012Z,13.00
2023-05-12T12:39:19.998Z,13.00
2023-05-12T12:41:46.902Z,13.10
2023-05-12T12:44:13.539Z,13.10
2023-05-12T12:46:40.224Z,13.10
2023-05-12T12:49:06.836Z,13.00
2023-05-12T12:51:44.517Z,13.00
2023-05-12T12:54:12.069Z,13.20
2023-05-12T12:56:38.687Z,13.20
2023-05-12T12:59:05.250Z,13.20
2023-05-12T13:01:33.367Z,13.20
2023-05-12T13:04:00.057Z,13.10
2023-05-12T13:06:26.731Z,13.10
2023-05-12T13:08:53.279Z,13.10
2023-05-12T13:11:19.893Z,12.90
2023-05-12T13:13:46.449Z,12.90
2023-05-12T13:16:13.156Z,12.90
2023-05-12T13:18:39.804Z,12.80
2023-05-12T13:21:06.435Z,12.80
2023-05-12T13:23:32.989Z,12.80
2023-05-12T13:25:59.563Z,12.80
2023-05-12T13:28:26.124Z,12.80
2023-05-12T13:30:52.811Z,12.80
2023-05-12T13:33:19.458Z,12.90
2023-05-12T13:35:46.089Z,13.00
2023-05-12T13:38:12.773Z,13.00
2023-05-12T13:40:39.389Z,12.90
2023-05-12T13:43:05.995Z,13.00
2023-05-12T13:45:32.575Z,13.10
2023-05-12T13:47:59.195Z,13.10
2023-05-12T13:50:25.886Z,12.90
2023-05-12T13:52:52.433Z,12.80
2023-05-12T13:55:21.572Z,13.00
2023-05-12T13:57:48.681Z,13.00
2023-05-12T14:00:15.579Z,12.90
2023-05-12T14:02:42.484Z,12.90
2023-05-12T14:05:09.495Z,13.00
2023-05-12T14:07:36.105Z,13.10
2023-05-12T14:10:02.736Z,13.00
2023-05-12T14:12:29.301Z,13.10
2023-05-12T14:15:04.516Z,13.10
2023-05-12T14:17:38.739Z,13.30
2023-05-12T14:20:06.074Z,13.10
2023-05-12T14:22:33.297Z,13.10
2023-05-12T14:24:59.851Z,13.20
2023-05-12T14:27:26.413Z,13.20
2023-05-12T14:29:52.964Z,13.20
2023-05-12T14:32:19.544Z,13.20
2023-05-12T14:34:46.164Z,13.20
2023-05-12T14:37:12.716Z,13.20
2023-05-12T14:39:39.289Z,13.30
2023-05-12T14:42:06.145Z,13.30
2023-05-12T14:44:32.687Z,13.20
2023-05-12T14:46:59.379Z,13.30
2023-05-12T14:49:25.991Z,13.30
2023-05-12T14:51:55.718Z,13.30
2023-05-12T14:54:25.549Z,13.20
2023-05-12T14:56:52.790Z,13.20
2023-05-12T14:59:19.560Z,13.20
2023-05-12T15:01:46.232Z,13.10
2023-05-12T15:04:12.902Z,13.10
2023-05-12T15:06:39.439Z,13.10
2023-05-12T15:09:05.976Z,13.00
2023-05-12T15:11:32.560Z,13.00
2023-05-12T15:13:59.092Z,13.00
2023-05-12T15:16:25.776Z,12.90
2023-05-12T15:18:52.420Z,13.00
2023-05-12T15:21:19.056Z,13.20
2023-05-12T15:23:45.604Z,13.10
2023-05-12T15:28:41.612Z,13.00
2023-05-12T15:31:08.220Z,13.00
2023-05-12T15:33:34.839Z,13.00
2023-05-12T15:36:01.378Z,13.00
2023-05-12T15:38:27.952Z,13.00
2023-05-12T15:40:54.504Z,13.00
2023-05-12T15:43:21.049Z,12.90
2023-05-12T15:45:47.621Z,12.90
2023-05-12T15:48:14.201Z,12.90
2023-05-12T15:50:40.770Z,13.00
2023-05-12T15:53:07.308Z,12.90
2023-05-12T15:55:34.055Z,13.00
2023-05-12T15:58:00.831Z,13.00
2023-05-12T16:00:27.454Z,12.90
2023-05-12T16:02:54.219Z,12.90
2023-05-12T16:05:20.970Z,12.90
2023-05-12T16:07:47.698Z,12.90
2023-05-12T16:10:14.770Z,12.80
2023-05-12T16:12:41.340Z,12.70
2023-05-12T16:15:08.366Z,12.70
2023-05-12T16:17:34.963Z,12.60
2023-05-12T16:20:01.573Z,12.70
2023-05-12T16:22:28.217Z,12.60
2023-05-12T16:24:54.778Z,12.50
2023-05-12T16:27:21.340Z,12.60
2023-05-12T16:29:47.921Z,12.60
2023-05-12T16:32:14.563Z,12.50
2023-05-12T16:34:41.192Z,12.50
2023-05-12T16:37:07.811Z,12.50
2023-05-12T16:39:34.366Z,12.50
2023-05-12T16:42:01.200Z,12.50
2023-05-12T16:44:28.074Z,12.50
2023-05-12T16:47:44.666Z,12.40
2023-05-12T16:50:11.540Z,12.50
2023-05-12T16:52:38.153Z,12.40
2023-05-12T16:55:05.165Z,12.40
2023-05-12T16:57:32.434Z,12.40
2023-05-12T16:59:59.059Z,12.30
2023-05-12T17:02:25.754Z,12.30
2023-05-12T17:04:52.380Z,12.20
2023-05-12T17:07:18.958Z,12.20
2023-05-12T17:09:45.530Z,12.30
2023-05-12T17:12:12.116Z,12.30
2023-05-12T17:14:38.688Z,12.20
2023-05-12T17:17:05.558Z,12.10
2023-05-12T17:19:32.343Z,12.00
2023-05-12T17:21:59.038Z,12.00
2023-05-12T17:24:25.796Z,12.10
2023-05-12T17:26:52.379Z,12.00
2023-05-12T17:29:18.941Z,12.00
2023-05-12T17:31:45.559Z,12.00
2023-05-12T17:34:12.207Z,11.90
2023-05-12T17:36:38.781Z,11.90
2023-05-12T17:39:05.325Z,11.90
2023-05-12T17:41:31.898Z,11.90
2023-05-12T17:43:58.466Z,11.90
2023-05-12T17:46:25.081Z,11.90
2023-05-12T17:48:51.707Z,12.00
2023-05-12T17:51:18.291Z,11.90
2023-05-12T17:53:44.865Z,11.90
2023-05-12T17:56:11.565Z,11.90
2023-05-12T17:58:38.142Z,12.00
2023-05-12T18:01:04.812Z,11.90
2023-05-12T18:03:31.450Z,11.90
2023-05-12T18:05:57.987Z,11.80
2023-05-12T18:08:24.579Z,11.80
2023-05-12T18:10:51.148Z,11.80
2023-05-12T18:13:17.712Z,11.70
2023-05-12T18:15:44.455Z,11.80
2023-05-12T18:18:11.260Z,11.70
2023-05-12T18:20:37.957Z,11.70
2023-05-12T18:23:04.660Z,11.70
2023-05-12T18:25:31.263Z,11.70
2023-05-12T18:27:57.811Z,11.70
2023-05-12T18:30:24.343Z,11.60
2023-05-12T18:32:51.022Z,11.60
2023-05-12T18:35:17.980Z,11.60
2023-05-12T18:37:44.734Z,11.60
2023-05-12T18:40:11.570Z,11.60
2023-05-12T18:42:38.401Z,11.60
2023-05-12T18:45:05.633Z,11.70
2023-05-12T18:47:32.329Z,11.50
2023-05-12T18:49:59.018Z,11.50
2023-05-12T18:52:25.608Z,11.50
2023-05-12T18:54:52.187Z,11.50
2023-05-12T18:57:18.736Z,11.50
2023-05-12T18:59:45.276Z,11.50
2023-05-12T19:02:11.903Z,11.60
2023-05-12T19:04:38.525Z,11.50
2023-05-12T19:07:05.150Z,11.50
2023-05-12T19:09:31.693Z,11.40
2023-05-12T19:11:58.307Z,11.40
2023-05-12T19:14:24.883Z,11.30
2023-05-12T19:16:51.462Z,11.30
2023-05-12T19:19:18.008Z,11.30
2023-05-12T19:21:44.557Z,11.40
2023-05-12T19:24:11.221Z,11.40
2023-05-12T19:26:37.770Z,11.30
2023-05-12T19:29:04.440Z,11.30
2023-05-12T19:31:31.333Z,11.30
2023-05-12T19:33:58.053Z,11.40
2023-05-12T19:36:24.693Z,11.30
2023-05-12T19:38:51.273Z,11.30
2023-05-12T19:41:17.872Z,11.30
2023-05-12T19:43:44.494Z,11.20
2023-05-12T19:46:11.302Z,11.30
2023-05-12T19:48:37.906Z,11.30
2023-05-12T19:51:04.508Z,11.20
2023-05-12T19:53:31.153Z,11.20
2023-05-12T19:55:57.758Z,11.30
2023-05-12T19:58:24.284Z,11.20
2023-05-12T20:00:50.957Z,11.20
2023-05-12T20:03:17.668Z,11.10
2023-05-12T20:05:44.763Z,11.10
2023-05-12T20:08:12.222Z,11.10
2023-05-12T20:10:38.803Z,11.10
2023-05-12T20:13:05.345Z,11.10
2023-05-12T20:15:32.656Z,11.10
2023-05-12T20:17:59.587Z,11.10
2023-05-12T20:20:26.198Z,11.20
2023-05-12T20:22:52.753Z,11.10
2023-05-12T20:25:19.563Z,11.00
2023-05-12T20:27:46.598Z,11.20
2023-05-12T20:30:13.479Z,11.10
2023-05-12T20:32:40.111Z,11.00
2023-05-12T20:35:07.035Z,11.00
2023-05-12T20:37:33.655Z,11.10
2023-05-12T20:40:00.312Z,11.00
2023-05-12T20:42:26.924Z,11.00
2023-05-12T20:44:53.504Z,11.00
2023-05-12T20:47:20.085Z,11.00
2023-05-12T20:49:46.699Z,10.90
2023-05-12T20:52:13.293Z,10.90
2023-05-12T20:54:39.871Z,10.90
2023-05-12T20:57:06.436Z,10.90
2023-05-12T20:59:33.034Z,10.90
2023-05-12T21:01:59.629Z,10.90
2023-05-12T21:04:26.289Z,10.90
2023-05-12T21:06:53.749Z,10.90
2023-05-12T21:09:20.516Z,10.90
2023-05-12T21:11:49.869Z,11.00
2023-05-12T21:14:16.462Z,10.90
2023-05-12T21:16:43.083Z,10.90
2023-05-12T21:19:09.738Z,10.90
2023-05-12T21:21:36.362Z,10.90
2023-05-12T21:24:03.129Z,10.80
2023-05-12T21:26:29.709Z,10.90
2023-05-12T21:28:56.294Z,10.80
2023-05-12T21:31:22.917Z,10.80
2023-05-12T21:33:49.490Z,10.80
2023-05-12T21:36:16.072Z,10.80
2023-05-12T21:38:42.653Z,10.80
2023-05-12T21:41:09.226Z,10.80
2023-05-12T21:43:35.791Z,10.80
2023-05-12T21:46:03.910Z,10.90
2023-05-12T21:48:31.629Z,10.80
2023-05-12T21:51:02.637Z,10.80
2023-05-12T21:53:29.584Z,10.80
2023-05-12T21:55:56.195Z,10.70
2023-05-12T21:58:22.867Z,10.80
2023-05-12T22:00:51.170Z,10.70
2023-05-12T22:03:18.145Z,10.70
2023-05-12T22:05:44.749Z,10.70
2023-05-12T22:08:11.342Z,10.80
2023-05-12T22:10:37.923Z,10.80
2023-05-12T22:13:04.566Z,10.70
2023-05-12T22:15:31.329Z,10.70
2023-05-12T22:17:58.011Z,10.80
2023-05-12T22:20:24.675Z,10.70
2023-05-12T22:22:51.254Z,10.70
2023-05-12T22:25:17.888Z,10.60
2023-05-12T22:27:45.330Z,10.70
2023-05-12T22:30:12.407Z,10.70
2023-05-12T22:32:39.070Z,10.60
2023-05-12T22:35:06.183Z,10.70
2023-05-12T22:37:32.950Z,10.60
2023-05-12T22:39:59.486Z,10.60
2023-05-12T22:42:26.006Z,10.60
2023-05-12T22:44:52.556Z,10.70
2023-05-12T22:47:19.148Z,10.60
2023-05-12T22:49:45.748Z,10.60
2023-05-12T22:52:12.269Z,10.60
2023-05-12T22:54:38.852Z,10.50
2023-05-12T22:57:05.519Z,10.50
2023-05-12T22:59:32.068Z,10.50
2023-05-12T23:01:58.642Z,10.50
2023-05-12T23:04:25.301Z,10.50
2023-05-12T23:06:51.910Z,10.50
2023-05-12T23:09:18.505Z,10.50
2023-05-12T23:11:45.078Z,10.50
2023-05-12T23:14:11.666Z,10.50
2023-05-12T23:16:38.341Z,10.50
2023-05-12T23:19:05.032Z,10.50
2023-05-12T23:21:31.658Z,10.50
2023-05-12T23:23:58.209Z,10.40
2023-05-12T23:26:25.064Z,10.40
2023-05-12T23:28:51.619Z,10.40
2023-05-12T23:31:18.196Z,10.40
2023-05-12T23:33:44.927Z,10.40
2023-05-12T23:36:11.554Z,10.30
2023-05-12T23:38:38.093Z,10.30
2023-05-12T23:41:04.767Z,10.40
2023-05-12T23:43:31.341Z,10.30
2023-05-12T23:45:58.100Z,10.30
2023-05-12T23:48:24.721Z,10.40
2023-05-12T23:50:51.378Z,10.40
2023-05-12T23:53:17.942Z,10.30
2023-05-12T23:55:44.520Z,10.40
2023-05-12T23:58:11.284Z,10.30
